sensor_id;sensor_type;location;lat;lon;timestamp;temperature;humidity
1778;DHT22;886;50.082;8.222;2022-10-30T00:01:20;14.80;99.90
1778;DHT22;886;50.082;8.222;2022-10-30T00:03:53;14.70;99.90
1778;DHT22;886;50.082;8.222;2022-10-30T00:06:20;14.70;99.90
1778;DHT22;886;50.082;8.222;2022-10-30T00:08:50;14.60;99.90
1778;DHT22;886;50.082;8.222;2022-10-30T00:11:17;14.50;99.90
1778;DHT22;886;50.082;8.222;2022-10-30T00:14:05;14.40;99.90
1778;DHT22;886;50.082;8.222;2022-10-30T00:16:33;14.40;99.90
1778;DHT22;886;50.082;8.222;2022-10-30T00:19:03;14.40;99.90
1778;DHT22;886;50.082;8.222;2022-10-30T00:21:30;14.50;99.90
1778;DHT22;886;50.082;8.222;2022-10-30T00:24:03;14.50;99.90
1778;DHT22;886;50.082;8.222;2022-10-30T00:26:33;14.40;99.90
1778;DHT22;886;50.082;8.222;2022-10-30T00:29:00;14.40;99.90
1778;DHT22;886;50.082;8.222;2022-10-30T00:31:29;14.50;99.90
1778;DHT22;886;50.082;8.222;2022-10-30T00:33:59;14.50;99.90
1778;DHT22;886;50.082;8.222;2022-10-30T00:36:26;14.50;99.90
1778;DHT22;886;50.082;8.222;2022-10-30T00:38:58;14.40;99.90
1778;DHT22;886;50.082;8.222;2022-10-30T00:41:28;14.40;99.90
1778;DHT22;886;50.082;8.222;2022-10-30T00:43:55;14.40;99.90
1778;DHT22;886;50.082;8.222;2022-10-30T00:46:26;14.40;99.90
1778;DHT22;886;50.082;8.222;2022-10-30T00:49:08;14.40;99.90
1778;DHT22;886;50.082;8.222;2022-10-30T00:51:44;14.40;99.90
1778;DHT22;886;50.082;8.222;2022-10-30T00:54:14;14.30;99.90
1778;DHT22;886;50.082;8.222;2022-10-30T00:56:46;14.40;99.90
1778;DHT22;886;50.082;8.222;2022-10-30T00:59:17;14.40;99.90
1778;DHT22;886;50.082;8.222;2022-10-30T01:01:52;14.50;99.90
1778;DHT22;886;50.082;8.222;2022-10-30T01:04:22;14.40;99.90
1778;DHT22;886;50.082;8.222;2022-10-30T01:06:56;14.50;99.90
1778;DHT22;886;50.082;8.222;2022-10-30T01:09:27;14.50;99.90
1778;DHT22;886;50.082;8.222;2022-10-30T01:11:57;14.50;99.90
1778;DHT22;886;50.082;8.222;2022-10-30T01:14:24;14.40;99.90
1778;DHT22;886;50.082;8.222;2022-10-30T01:17:05;14.40;99.90
1778;DHT22;886;50.082;8.222;2022-10-30T01:19:57;14.40;99.90
1778;DHT22;886;50.082;8.222;2022-10-30T01:22:43;14.30;99.90
1778;DHT22;886;50.082;8.222;2022-10-30T01:25:29;14.40;99.90
1778;DHT22;886;50.082;8.222;2022-10-30T01:28:22;14.40;99.90
1778;DHT22;886;50.082;8.222;2022-10-30T01:31:05;14.40;99.90
1778;DHT22;886;50.082;8.222;2022-10-30T01:33:49;14.40;99.90
1778;DHT22;886;50.082;8.222;2022-10-30T01:36:32;14.30;99.90
1778;DHT22;886;50.082;8.222;2022-10-30T01:39:04;14.30;99.90
1778;DHT22;886;50.082;8.222;2022-10-30T01:41:37;14.20;99.90
1778;DHT22;886;50.082;8.222;2022-10-30T01:44:09;14.30;99.90
1778;DHT22;886;50.082;8.222;2022-10-30T01:46:47;14.30;99.90
1778;DHT22;886;50.082;8.222;2022-10-30T01:49:44;14.30;99.90
1778;DHT22;886;50.082;8.222;2022-10-30T01:52:27;14.30;99.90
1778;DHT22;886;50.082;8.222;2022-10-30T01:55:06;14.30;99.90
1778;DHT22;886;50.082;8.222;2022-10-30T01:57:43;14.30;99.90
1778;DHT22;886;50.082;8.222;2022-10-30T02:00:16;14.30;99.90
1778;DHT22;886;50.082;8.222;2022-10-30T02:02:45;14.30;99.90
1778;DHT22;886;50.082;8.222;2022-10-30T02:05:20;14.20;99.90
1778;DHT22;886;50.082;8.222;2022-10-30T02:07:53;14.20;99.90
1778;DHT22;886;50.082;8.222;2022-10-30T02:10:21;14.30;99.90
1778;DHT22;886;50.082;8.222;2022-10-30T02:12:51;14.30;99.90
1778;DHT22;886;50.082;8.222;2022-10-30T02:15:18;14.30;99.90
1778;DHT22;886;50.082;8.222;2022-10-30T02:17:48;14.30;99.90
1778;DHT22;886;50.082;8.222;2022-10-30T02:20:17;14.20;99.90
1778;DHT22;886;50.082;8.222;2022-10-30T02:22:44;14.20;99.90
1778;DHT22;886;50.082;8.222;2022-10-30T02:25:12;14.20;99.90
1778;DHT22;886;50.082;8.222;2022-10-30T02:27:42;14.20;99.90
1778;DHT22;886;50.082;8.222;2022-10-30T02:30:12;14.20;99.90
1778;DHT22;886;50.082;8.222;2022-10-30T02:32:40;14.10;99.90
1778;DHT22;886;50.082;8.222;2022-10-30T02:35:10;14.10;99.90
1778;DHT22;886;50.082;8.222;2022-10-30T02:37:41;14.00;99.90
1778;DHT22;886;50.082;8.222;2022-10-30T02:40:09;14.20;99.90
1778;DHT22;886;50.082;8.222;2022-10-30T02:42:37;14.20;99.90
1778;DHT22;886;50.082;8.222;2022-10-30T02:45:10;14.20;99.90
1778;DHT22;886;50.082;8.222;2022-10-30T02:47:37;14.20;99.90
1778;DHT22;886;50.082;8.222;2022-10-30T02:50:07;14.10;99.90
1778;DHT22;886;50.082;8.222;2022-10-30T02:52:38;14.20;99.90
1778;DHT22;886;50.082;8.222;2022-10-30T02:55:09;14.20;99.90
1778;DHT22;886;50.082;8.222;2022-10-30T02:57:37;14.20;99.90
1778;DHT22;886;50.082;8.222;2022-10-30T03:00:05;14.10;99.90
1778;DHT22;886;50.082;8.222;2022-10-30T03:02:32;14.10;99.90
1778;DHT22;886;50.082;8.222;2022-10-30T03:05:02;14.10;99.90
1778;DHT22;886;50.082;8.222;2022-10-30T03:07:29;14.10;99.90
1778;DHT22;886;50.082;8.222;2022-10-30T03:09:57;14.10;99.90
1778;DHT22;886;50.082;8.222;2022-10-30T03:12:24;14.10;99.90
1778;DHT22;886;50.082;8.222;2022-10-30T03:14:51;14.20;99.90
1778;DHT22;886;50.082;8.222;2022-10-30T03:17:24;14.20;99.90
1778;DHT22;886;50.082;8.222;2022-10-30T03:19:57;14.30;99.90
1778;DHT22;886;50.082;8.222;2022-10-30T03:22:29;14.30;99.90
1778;DHT22;886;50.082;8.222;2022-10-30T03:24:58;14.30;99.90
1778;DHT22;886;50.082;8.222;2022-10-30T03:27:25;14.10;99.90
1778;DHT22;886;50.082;8.222;2022-10-30T03:29:52;14.10;99.90
1778;DHT22;886;50.082;8.222;2022-10-30T03:32:22;14.10;99.90
1778;DHT22;886;50.082;8.222;2022-10-30T03:34:54;14.10;99.90
1778;DHT22;886;50.082;8.222;2022-10-30T03:37:21;14.00;99.90
1778;DHT22;886;50.082;8.222;2022-10-30T03:39:50;14.00;99.90
1778;DHT22;886;50.082;8.222;2022-10-30T03:42:18;14.00;99.90
1778;DHT22;886;50.082;8.222;2022-10-30T03:44:45;14.00;99.90
1778;DHT22;886;50.082;8.222;2022-10-30T03:47:18;13.90;99.90
1778;DHT22;886;50.082;8.222;2022-10-30T03:49:45;13.90;99.90
1778;DHT22;886;50.082;8.222;2022-10-30T03:52:15;13.90;99.90
1778;DHT22;886;50.082;8.222;2022-10-30T03:54:45;14.00;99.90
1778;DHT22;886;50.082;8.222;2022-10-30T03:57:12;13.90;99.90
1778;DHT22;886;50.082;8.222;2022-10-30T03:59:43;13.90;99.90
1778;DHT22;886;50.082;8.222;2022-10-30T04:02:19;13.90;99.90
1778;DHT22;886;50.082;8.222;2022-10-30T04:04:53;14.00;99.90
1778;DHT22;886;50.082;8.222;2022-10-30T04:07:20;14.00;99.90
1778;DHT22;886;50.082;8.222;2022-10-30T04:09:51;14.00;99.90
1778;DHT22;886;50.082;8.222;2022-10-30T04:12:18;14.00;99.90
1778;DHT22;886;50.082;8.222;2022-10-30T04:14:46;13.90;99.90
1778;DHT22;886;50.082;8.222;2022-10-30T04:17:15;13.90;99.90
1778;DHT22;886;50.082;8.222;2022-10-30T04:19:42;13.90;99.90
1778;DHT22;886;50.082;8.222;2022-10-30T04:22:11;13.90;99.90
1778;DHT22;886;50.082;8.222;2022-10-30T04:24:38;14.00;99.90
1778;DHT22;886;50.082;8.222;2022-10-30T04:27:05;13.90;99.90
1778;DHT22;886;50.082;8.222;2022-10-30T04:29:32;14.00;99.90
1778;DHT22;886;50.082;8.222;2022-10-30T04:32:00;14.00;99.90
1778;DHT22;886;50.082;8.222;2022-10-30T04:34:28;14.00;99.90
1778;DHT22;886;50.082;8.222;2022-10-30T04:36:55;13.90;99.90
1778;DHT22;886;50.082;8.222;2022-10-30T04:39:22;13.80;99.90
1778;DHT22;886;50.082;8.222;2022-10-30T04:41:54;13.80;99.90
1778;DHT22;886;50.082;8.222;2022-10-30T04:44:27;13.80;99.90
1778;DHT22;886;50.082;8.222;2022-10-30T04:46:54;13.80;99.90
1778;DHT22;886;50.082;8.222;2022-10-30T04:49:25;13.80;99.90
1778;DHT22;886;50.082;8.222;2022-10-30T04:52:03;13.70;99.90
1778;DHT22;886;50.082;8.222;2022-10-30T04:54:33;13.70;99.90
1778;DHT22;886;50.082;8.222;2022-10-30T04:57:04;13.70;99.90
1778;DHT22;886;50.082;8.222;2022-10-30T04:59:40;13.70;99.90
1778;DHT22;886;50.082;8.222;2022-10-30T05:02:07;13.60;99.90
1778;DHT22;886;50.082;8.222;2022-10-30T05:04:38;13.60;99.90
1778;DHT22;886;50.082;8.222;2022-10-30T05:07:12;13.60;99.90
1778;DHT22;886;50.082;8.222;2022-10-30T05:09:41;13.70;99.90
1778;DHT22;886;50.082;8.222;2022-10-30T05:12:09;13.70;99.90
1778;DHT22;886;50.082;8.222;2022-10-30T05:14:39;13.60;99.90
1778;DHT22;886;50.082;8.222;2022-10-30T05:17:12;13.60;99.90
1778;DHT22;886;50.082;8.222;2022-10-30T05:19:40;13.60;99.90
1778;DHT22;886;50.082;8.222;2022-10-30T05:22:13;13.50;99.90
1778;DHT22;886;50.082;8.222;2022-10-30T05:24:40;13.60;99.90
1778;DHT22;886;50.082;8.222;2022-10-30T05:27:07;13.60;99.90
1778;DHT22;886;50.082;8.222;2022-10-30T05:29:35;13.60;99.90
1778;DHT22;886;50.082;8.222;2022-10-30T05:32:02;13.60;99.90
1778;DHT22;886;50.082;8.222;2022-10-30T05:34:29;13.50;99.90
1778;DHT22;886;50.082;8.222;2022-10-30T05:36:57;13.50;99.90
1778;DHT22;886;50.082;8.222;2022-10-30T05:39:27;13.40;99.90
1778;DHT22;886;50.082;8.222;2022-10-30T05:41:54;13.20;99.90
1778;DHT22;886;50.082;8.222;2022-10-30T05:44:21;13.20;99.90
1778;DHT22;886;50.082;8.222;2022-10-30T05:47:10;13.20;99.90
1778;DHT22;886;50.082;8.222;2022-10-30T05:49:37;13.20;99.90
1778;DHT22;886;50.082;8.222;2022-10-30T05:52:05;13.20;99.90
1778;DHT22;886;50.082;8.222;2022-10-30T05:54:35;13.20;99.90
1778;DHT22;886;50.082;8.222;2022-10-30T05:57:05;13.20;99.90
1778;DHT22;886;50.082;8.222;2022-10-30T05:59:32;13.10;99.90
1778;DHT22;886;50.082;8.222;2022-10-30T06:01:59;13.10;99.90
1778;DHT22;886;50.082;8.222;2022-10-30T06:04:26;13.10;99.90
1778;DHT22;886;50.082;8.222;2022-10-30T06:06:56;13.10;99.90
1778;DHT22;886;50.082;8.222;2022-10-30T06:09:24;13.00;99.90
1778;DHT22;886;50.082;8.222;2022-10-30T06:11:52;13.00;99.90
1778;DHT22;886;50.082;8.222;2022-10-30T06:14:19;13.00;99.90
1778;DHT22;886;50.082;8.222;2022-10-30T06:16:47;13.00;99.90
1778;DHT22;886;50.082;8.222;2022-10-30T06:19:14;13.00;99.90
1778;DHT22;886;50.082;8.222;2022-10-30T06:21:44;12.90;99.90
1778;DHT22;886;50.082;8.222;2022-10-30T06:24:12;12.90;99.90
1778;DHT22;886;50.082;8.222;2022-10-30T06:26:41;12.80;99.90
1778;DHT22;886;50.082;8.222;2022-10-30T06:29:08;12.80;99.90
1778;DHT22;886;50.082;8.222;2022-10-30T06:31:38;12.70;99.90
1778;DHT22;886;50.082;8.222;2022-10-30T06:34:05;12.70;99.90
1778;DHT22;886;50.082;8.222;2022-10-30T06:36:34;12.70;99.90
1778;DHT22;886;50.082;8.222;2022-10-30T06:39:02;12.80;99.90
1778;DHT22;886;50.082;8.222;2022-10-30T06:41:29;12.80;99.90
1778;DHT22;886;50.082;8.222;2022-10-30T06:43:58;12.80;99.90
1778;DHT22;886;50.082;8.222;2022-10-30T06:46:25;12.80;99.90
1778;DHT22;886;50.082;8.222;2022-10-30T06:48:59;12.90;99.90
1778;DHT22;886;50.082;8.222;2022-10-30T06:51:26;12.80;99.90
1778;DHT22;886;50.082;8.222;2022-10-30T06:53:56;12.80;99.90
1778;DHT22;886;50.082;8.222;2022-10-30T06:56:25;12.80;99.90
1778;DHT22;886;50.082;8.222;2022-10-30T06:58:53;12.80;99.90
1778;DHT22;886;50.082;8.222;2022-10-30T07:01:26;12.80;99.90
1778;DHT22;886;50.082;8.222;2022-10-30T07:03:54;12.80;99.90
1778;DHT22;886;50.082;8.222;2022-10-30T07:06:23;12.80;99.90
1778;DHT22;886;50.082;8.222;2022-10-30T07:09:12;12.80;99.90
1778;DHT22;886;50.082;8.222;2022-10-30T07:11:42;12.80;99.90
1778;DHT22;886;50.082;8.222;2022-10-30T07:14:16;12.80;99.90
1778;DHT22;886;50.082;8.222;2022-10-30T07:16:53;12.80;99.90
1778;DHT22;886;50.082;8.222;2022-10-30T07:19:20;12.90;99.90
1778;DHT22;886;50.082;8.222;2022-10-30T07:21:47;13.00;99.90
1778;DHT22;886;50.082;8.222;2022-10-30T07:24:15;13.10;99.90
1778;DHT22;886;50.082;8.222;2022-10-30T07:26:42;13.20;99.90
1778;DHT22;886;50.082;8.222;2022-10-30T07:29:12;13.30;99.90
1778;DHT22;886;50.082;8.222;2022-10-30T07:31:39;13.30;99.90
1778;DHT22;886;50.082;8.222;2022-10-30T07:34:11;13.30;99.90
1778;DHT22;886;50.082;8.222;2022-10-30T07:36:41;13.40;99.90
1778;DHT22;886;50.082;8.222;2022-10-30T07:39:11;13.50;99.90
1778;DHT22;886;50.082;8.222;2022-10-30T07:41:48;13.60;99.90
1778;DHT22;886;50.082;8.222;2022-10-30T07:44:24;13.60;99.90
1778;DHT22;886;50.082;8.222;2022-10-30T07:46:51;13.80;99.90
1778;DHT22;886;50.082;8.222;2022-10-30T07:49:20;13.80;99.90
1778;DHT22;886;50.082;8.222;2022-10-30T07:51:47;13.90;99.90
1778;DHT22;886;50.082;8.222;2022-10-30T07:54:14;13.90;99.90
1778;DHT22;886;50.082;8.222;2022-10-30T07:56:43;13.90;99.90
1778;DHT22;886;50.082;8.222;2022-10-30T07:59:13;14.10;99.90
1778;DHT22;886;50.082;8.222;2022-10-30T08:01:40;14.10;99.90
1778;DHT22;886;50.082;8.222;2022-10-30T08:04:08;14.10;99.90
1778;DHT22;886;50.082;8.222;2022-10-30T08:06:38;14.20;99.90
1778;DHT22;886;50.082;8.222;2022-10-30T08:09:05;14.30;99.90
1778;DHT22;886;50.082;8.222;2022-10-30T08:11:41;14.40;99.90
1778;DHT22;886;50.082;8.222;2022-10-30T08:14:17;14.40;99.90
1778;DHT22;886;50.082;8.222;2022-10-30T08:16:47;14.40;99.90
1778;DHT22;886;50.082;8.222;2022-10-30T08:19:17;14.40;99.90
1778;DHT22;886;50.082;8.222;2022-10-30T08:21:45;14.40;99.90
1778;DHT22;886;50.082;8.222;2022-10-30T08:24:12;14.50;99.90
1778;DHT22;886;50.082;8.222;2022-10-30T08:26:39;14.60;99.90
1778;DHT22;886;50.082;8.222;2022-10-30T08:29:09;14.60;99.90
1778;DHT22;886;50.082;8.222;2022-10-30T08:31:42;14.70;99.90
1778;DHT22;886;50.082;8.222;2022-10-30T08:34:09;14.80;99.90
1778;DHT22;886;50.082;8.222;2022-10-30T08:36:42;14.80;99.90
1778;DHT22;886;50.082;8.222;2022-10-30T08:39:16;14.90;99.90
1778;DHT22;886;50.082;8.222;2022-10-30T08:41:43;14.90;99.90
1778;DHT22;886;50.082;8.222;2022-10-30T08:44:10;14.90;99.90
1778;DHT22;886;50.082;8.222;2022-10-30T08:46:43;15.00;99.90
1778;DHT22;886;50.082;8.222;2022-10-30T08:49:12;15.00;99.90
1778;DHT22;886;50.082;8.222;2022-10-30T08:51:39;15.00;99.90
1778;DHT22;886;50.082;8.222;2022-10-30T08:54:20;15.10;99.90
1778;DHT22;886;50.082;8.222;2022-10-30T08:56:47;15.10;99.90
1778;DHT22;886;50.082;8.222;2022-10-30T08:59:14;15.20;99.90
1778;DHT22;886;50.082;8.222;2022-10-30T09:01:47;15.20;99.90
1778;DHT22;886;50.082;8.222;2022-10-30T09:04:22;15.40;99.90
1778;DHT22;886;50.082;8.222;2022-10-30T09:06:49;15.50;99.90
1778;DHT22;886;50.082;8.222;2022-10-30T09:09:20;15.50;99.90
1778;DHT22;886;50.082;8.222;2022-10-30T09:11:47;15.50;99.90
1778;DHT22;886;50.082;8.222;2022-10-30T09:14:17;15.60;99.90
1778;DHT22;886;50.082;8.222;2022-10-30T09:16:47;15.60;99.90
1778;DHT22;886;50.082;8.222;2022-10-30T09:19:23;15.70;99.90
1778;DHT22;886;50.082;8.222;2022-10-30T09:21:56;15.70;99.90
1778;DHT22;886;50.082;8.222;2022-10-30T09:24:25;15.70;99.90
1778;DHT22;886;50.082;8.222;2022-10-30T09:26:55;15.80;99.90
1778;DHT22;886;50.082;8.222;2022-10-30T09:29:44;15.80;99.90
1778;DHT22;886;50.082;8.222;2022-10-30T09:32:14;15.90;99.90
1778;DHT22;886;50.082;8.222;2022-10-30T09:34:47;16.00;99.90
1778;DHT22;886;50.082;8.222;2022-10-30T09:37:17;16.10;99.90
1778;DHT22;886;50.082;8.222;2022-10-30T09:39:52;16.10;99.90
1778;DHT22;886;50.082;8.222;2022-10-30T09:42:39;16.20;99.90
1778;DHT22;886;50.082;8.222;2022-10-30T09:45:39;16.30;99.90
1778;DHT22;886;50.082;8.222;2022-10-30T09:48:43;16.40;99.90
1778;DHT22;886;50.082;8.222;2022-10-30T09:51:33;16.50;99.90
1778;DHT22;886;50.082;8.222;2022-10-30T09:54:26;16.50;99.90
1778;DHT22;886;50.082;8.222;2022-10-30T09:57:06;16.60;99.90
1778;DHT22;886;50.082;8.222;2022-10-30T09:59:55;16.60;99.90
1778;DHT22;886;50.082;8.222;2022-10-30T10:02:33;16.60;99.90
1778;DHT22;886;50.082;8.222;2022-10-30T10:05:12;16.70;99.90
1778;DHT22;886;50.082;8.222;2022-10-30T10:07:44;16.70;99.90
1778;DHT22;886;50.082;8.222;2022-10-30T10:10:24;16.80;99.90
1778;DHT22;886;50.082;8.222;2022-10-30T10:12:59;16.80;99.90
1778;DHT22;886;50.082;8.222;2022-10-30T10:15:36;17.00;99.90
1778;DHT22;886;50.082;8.222;2022-10-30T10:18:15;17.20;99.90
1778;DHT22;886;50.082;8.222;2022-10-30T10:20:49;17.30;99.90
1778;DHT22;886;50.082;8.222;2022-10-30T10:23:26;17.40;99.90
1778;DHT22;886;50.082;8.222;2022-10-30T10:26:02;17.40;99.90
1778;DHT22;886;50.082;8.222;2022-10-30T10:28:54;17.50;99.90
1778;DHT22;886;50.082;8.222;2022-10-30T10:31:38;17.50;99.90
1778;DHT22;886;50.082;8.222;2022-10-30T10:34:23;17.50;99.90
1778;DHT22;886;50.082;8.222;2022-10-30T10:37:04;17.50;99.90
1778;DHT22;886;50.082;8.222;2022-10-30T10:39:46;17.50;99.90
1778;DHT22;886;50.082;8.222;2022-10-30T10:42:26;17.50;99.90
1778;DHT22;886;50.082;8.222;2022-10-30T10:45:19;17.50;99.90
1778;DHT22;886;50.082;8.222;2022-10-30T10:48:13;17.60;99.90
1778;DHT22;886;50.082;8.222;2022-10-30T10:50:49;17.60;99.90
1778;DHT22;886;50.082;8.222;2022-10-30T10:53:21;17.60;99.90
1778;DHT22;886;50.082;8.222;2022-10-30T10:55:52;17.60;99.90
1778;DHT22;886;50.082;8.222;2022-10-30T10:58:26;17.70;99.90
1778;DHT22;886;50.082;8.222;2022-10-30T11:00:59;17.70;99.90
1778;DHT22;886;50.082;8.222;2022-10-30T11:03:35;17.80;99.90
1778;DHT22;886;50.082;8.222;2022-10-30T11:06:18;17.90;99.90
1778;DHT22;886;50.082;8.222;2022-10-30T11:08:48;17.90;99.90
1778;DHT22;886;50.082;8.222;2022-10-30T11:11:15;17.90;99.90
1778;DHT22;886;50.082;8.222;2022-10-30T11:13:43;17.90;99.90
1778;DHT22;886;50.082;8.222;2022-10-30T11:16:23;18.00;99.90
1778;DHT22;886;50.082;8.222;2022-10-30T11:18:58;18.00;99.90
1778;DHT22;886;50.082;8.222;2022-10-30T11:21:28;18.10;99.90
1778;DHT22;886;50.082;8.222;2022-10-30T11:24:01;18.10;99.90
1778;DHT22;886;50.082;8.222;2022-10-30T11:26:33;18.10;99.90
1778;DHT22;886;50.082;8.222;2022-10-30T11:29:03;18.10;99.90
1778;DHT22;886;50.082;8.222;2022-10-30T11:31:43;18.10;99.90
1778;DHT22;886;50.082;8.222;2022-10-30T11:34:22;18.10;99.90
1778;DHT22;886;50.082;8.222;2022-10-30T11:36:52;18.10;99.90
1778;DHT22;886;50.082;8.222;2022-10-30T11:39:24;18.10;99.90
1778;DHT22;886;50.082;8.222;2022-10-30T11:42:02;18.20;99.90
1778;DHT22;886;50.082;8.222;2022-10-30T11:44:40;18.20;99.90
1778;DHT22;886;50.082;8.222;2022-10-30T11:47:25;18.20;99.90
1778;DHT22;886;50.082;8.222;2022-10-30T11:50:02;18.20;99.90
1778;DHT22;886;50.082;8.222;2022-10-30T11:52:43;18.30;99.90
1778;DHT22;886;50.082;8.222;2022-10-30T11:55:16;18.20;99.90
1778;DHT22;886;50.082;8.222;2022-10-30T11:57:55;18.30;99.90
1778;DHT22;886;50.082;8.222;2022-10-30T12:00:25;18.30;99.90
1778;DHT22;886;50.082;8.222;2022-10-30T12:02:56;18.40;99.90
1778;DHT22;886;50.082;8.222;2022-10-30T12:05:37;18.40;99.90
1778;DHT22;886;50.082;8.222;2022-10-30T12:08:22;18.40;99.90
1778;DHT22;886;50.082;8.222;2022-10-30T12:10:57;18.40;99.90
1778;DHT22;886;50.082;8.222;2022-10-30T12:13:34;18.50;99.90
1778;DHT22;886;50.082;8.222;2022-10-30T12:16:18;18.60;99.90
1778;DHT22;886;50.082;8.222;2022-10-30T12:18:59;18.60;99.90
1778;DHT22;886;50.082;8.222;2022-10-30T12:21:34;18.70;99.90
1778;DHT22;886;50.082;8.222;2022-10-30T12:24:14;18.70;99.90
1778;DHT22;886;50.082;8.222;2022-10-30T12:26:51;18.80;99.90
1778;DHT22;886;50.082;8.222;2022-10-30T12:29:21;18.80;99.90
1778;DHT22;886;50.082;8.222;2022-10-30T12:32:15;18.80;99.90
1778;DHT22;886;50.082;8.222;2022-10-30T12:34:52;18.90;99.90
1778;DHT22;886;50.082;8.222;2022-10-30T12:37:28;18.90;99.90
1778;DHT22;886;50.082;8.222;2022-10-30T12:40:15;18.90;99.90
1778;DHT22;886;50.082;8.222;2022-10-30T12:42:48;18.90;99.90
1778;DHT22;886;50.082;8.222;2022-10-30T12:45:22;19.00;99.90
1778;DHT22;886;50.082;8.222;2022-10-30T12:47:56;19.10;99.90
1778;DHT22;886;50.082;8.222;2022-10-30T12:50:39;19.00;99.90
1778;DHT22;886;50.082;8.222;2022-10-30T12:53:24;19.10;99.90
1778;DHT22;886;50.082;8.222;2022-10-30T12:55:57;19.10;99.90
1778;DHT22;886;50.082;8.222;2022-10-30T12:58:35;19.20;99.90
1778;DHT22;886;50.082;8.222;2022-10-30T13:01:11;19.20;99.90
1778;DHT22;886;50.082;8.222;2022-10-30T13:03:51;19.20;99.90
1778;DHT22;886;50.082;8.222;2022-10-30T13:06:27;19.30;99.90
1778;DHT22;886;50.082;8.222;2022-10-30T13:09:08;19.40;99.90
1778;DHT22;886;50.082;8.222;2022-10-30T13:14:35;19.30;99.90
1778;DHT22;886;50.082;8.222;2022-10-30T13:17:10;19.30;99.90
1778;DHT22;886;50.082;8.222;2022-10-30T13:19:39;19.20;99.90
1778;DHT22;886;50.082;8.222;2022-10-30T13:22:15;19.10;99.90
1778;DHT22;886;50.082;8.222;2022-10-30T13:24:52;19.20;99.90
1778;DHT22;886;50.082;8.222;2022-10-30T13:27:44;19.30;99.90
1778;DHT22;886;50.082;8.222;2022-10-30T13:30:16;19.20;99.90
1778;DHT22;886;50.082;8.222;2022-10-30T13:33:01;19.20;99.90
1778;DHT22;886;50.082;8.222;2022-10-30T13:35:36;19.10;99.90
1778;DHT22;886;50.082;8.222;2022-10-30T13:38:28;19.10;99.90
1778;DHT22;886;50.082;8.222;2022-10-30T13:41:10;19.10;99.90
1778;DHT22;886;50.082;8.222;2022-10-30T13:43:47;19.10;99.90
1778;DHT22;886;50.082;8.222;2022-10-30T13:46:30;19.20;99.90
1778;DHT22;886;50.082;8.222;2022-10-30T13:49:11;19.30;99.90
1778;DHT22;886;50.082;8.222;2022-10-30T13:51:53;19.20;99.90
1778;DHT22;886;50.082;8.222;2022-10-30T13:54:43;19.20;99.90
1778;DHT22;886;50.082;8.222;2022-10-30T13:57:25;19.10;99.90
1778;DHT22;886;50.082;8.222;2022-10-30T14:00:02;19.10;99.90
1778;DHT22;886;50.082;8.222;2022-10-30T14:03:10;19.30;99.90
1778;DHT22;886;50.082;8.222;2022-10-30T14:05:46;19.20;99.90
1778;DHT22;886;50.082;8.222;2022-10-30T14:08:31;19.20;99.90
1778;DHT22;886;50.082;8.222;2022-10-30T14:11:10;19.20;99.90
1778;DHT22;886;50.082;8.222;2022-10-30T14:13:53;19.10;99.90
1778;DHT22;886;50.082;8.222;2022-10-30T14:16:33;19.10;99.90
1778;DHT22;886;50.082;8.222;2022-10-30T14:19:04;19.10;99.90
1778;DHT22;886;50.082;8.222;2022-10-30T14:21:52;19.10;99.90
1778;DHT22;886;50.082;8.222;2022-10-30T14:24:26;19.10;99.90
1778;DHT22;886;50.082;8.222;2022-10-30T14:27:09;19.10;99.90
1778;DHT22;886;50.082;8.222;2022-10-30T14:29:49;19.00;99.90
1778;DHT22;886;50.082;8.222;2022-10-30T14:32:50;19.00;99.90
1778;DHT22;886;50.082;8.222;2022-10-30T14:35:33;19.00;99.90
1778;DHT22;886;50.082;8.222;2022-10-30T14:38:34;19.10;99.90
1778;DHT22;886;50.082;8.222;2022-10-30T14:41:33;19.10;99.90
1778;DHT22;886;50.082;8.222;2022-10-30T14:44:48;19.10;99.90
1778;DHT22;886;50.082;8.222;2022-10-30T14:47:51;19.10;99.90
1778;DHT22;886;50.082;8.222;2022-10-30T14:50:32;19.10;99.90
1778;DHT22;886;50.082;8.222;2022-10-30T14:53:23;19.10;99.90
1778;DHT22;886;50.082;8.222;2022-10-30T14:56:02;19.10;99.90
1778;DHT22;886;50.082;8.222;2022-10-30T14:58:36;19.10;99.90
1778;DHT22;886;50.082;8.222;2022-10-30T15:01:33;19.10;99.90
1778;DHT22;886;50.082;8.222;2022-10-30T15:04:15;19.00;99.90
1778;DHT22;886;50.082;8.222;2022-10-30T15:06:53;19.10;99.90
1778;DHT22;886;50.082;8.222;2022-10-30T15:09:36;19.00;99.90
1778;DHT22;886;50.082;8.222;2022-10-30T15:12:22;19.00;99.90
1778;DHT22;886;50.082;8.222;2022-10-30T15:15:01;19.00;99.90
1778;DHT22;886;50.082;8.222;2022-10-30T15:17:36;19.00;99.90
1778;DHT22;886;50.082;8.222;2022-10-30T15:20:15;19.00;99.90
1778;DHT22;886;50.082;8.222;2022-10-30T15:22:47;19.00;99.90
1778;DHT22;886;50.082;8.222;2022-10-30T15:25:17;19.00;99.90
1778;DHT22;886;50.082;8.222;2022-10-30T15:27:46;18.90;99.90
1778;DHT22;886;50.082;8.222;2022-10-30T15:30:16;18.80;99.90
1778;DHT22;886;50.082;8.222;2022-10-30T15:32:46;18.80;99.90
1778;DHT22;886;50.082;8.222;2022-10-30T15:35:17;18.70;99.90
1778;DHT22;886;50.082;8.222;2022-10-30T15:37:56;18.70;99.90
1778;DHT22;886;50.082;8.222;2022-10-30T15:40:28;18.60;99.90
1778;DHT22;886;50.082;8.222;2022-10-30T15:43:05;18.60;99.90
1778;DHT22;886;50.082;8.222;2022-10-30T15:45:40;18.50;99.90
1778;DHT22;886;50.082;8.222;2022-10-30T15:48:19;18.40;99.90
1778;DHT22;886;50.082;8.222;2022-10-30T15:50:58;18.40;99.90
1778;DHT22;886;50.082;8.222;2022-10-30T15:53:34;18.40;99.90
1778;DHT22;886;50.082;8.222;2022-10-30T15:56:16;18.30;99.90
1778;DHT22;886;50.082;8.222;2022-10-30T15:58:49;18.30;99.90
1778;DHT22;886;50.082;8.222;2022-10-30T16:01:26;18.20;99.90
1778;DHT22;886;50.082;8.222;2022-10-30T16:03:58;18.10;99.90
1778;DHT22;886;50.082;8.222;2022-10-30T16:06:30;18.10;99.90
1778;DHT22;886;50.082;8.222;2022-10-30T16:08:57;18.00;99.90
1778;DHT22;886;50.082;8.222;2022-10-30T16:11:25;17.90;99.90
1778;DHT22;886;50.082;8.222;2022-10-30T16:13:52;17.90;99.90
1778;DHT22;886;50.082;8.222;2022-10-30T16:16:23;17.90;99.90
1778;DHT22;886;50.082;8.222;2022-10-30T16:18:57;17.80;99.90
1778;DHT22;886;50.082;8.222;2022-10-30T16:21:27;17.70;99.90
1778;DHT22;886;50.082;8.222;2022-10-30T16:24:00;17.50;99.90
1778;DHT22;886;50.082;8.222;2022-10-30T16:26:30;17.50;99.90
1778;DHT22;886;50.082;8.222;2022-10-30T16:29:07;17.40;99.90
1778;DHT22;886;50.082;8.222;2022-10-30T16:31:48;17.30;99.90
1778;DHT22;886;50.082;8.222;2022-10-30T16:34:21;17.30;99.90
1778;DHT22;886;50.082;8.222;2022-10-30T16:36:51;17.30;99.90
1778;DHT22;886;50.082;8.222;2022-10-30T16:39:19;17.30;99.90
1778;DHT22;886;50.082;8.222;2022-10-30T16:41:47;17.20;99.90
1778;DHT22;886;50.082;8.222;2022-10-30T16:44:28;17.10;99.90
1778;DHT22;886;50.082;8.222;2022-10-30T16:47:06;17.10;99.90
1778;DHT22;886;50.082;8.222;2022-10-30T16:49:55;17.20;99.90
1778;DHT22;886;50.082;8.222;2022-10-30T16:52:25;17.10;99.90
1778;DHT22;886;50.082;8.222;2022-10-30T16:54:59;17.10;99.90
1778;DHT22;886;50.082;8.222;2022-10-30T16:57:30;17.00;99.90
1778;DHT22;886;50.082;8.222;2022-10-30T16:59:59;16.80;99.90
1778;DHT22;886;50.082;8.222;2022-10-30T17:02:29;16.80;99.90
1778;DHT22;886;50.082;8.222;2022-10-30T17:05:10;16.70;99.90